Somerset, Indiana
Current Conditions -  °F | °C
As of 2:35 AM on Sunday 23 Nov 2014 (Local Time) from KMZZ Reporting Station
Light Rain Light Rain  
Wind Chill: 39°   Ceiling: 9000
Heat Index: 45°   Visibility: 7mi
Dew Point: 41°   Wind: 13mph
Humidity: 87%   Direction: 190°S
Pressure: 29.96"   Gusts: 18mph
Location:  40.67°N, 85.83°W
Report Text: KMZZ 230735Z AUTO 19011G16KT 7SM -RA SCT044 SCT050 OVC090 07/05 A2996 RMK AO2 T00720052
Loading
Personal Weather Stations






























Interactive Weather Map New forecast layout! Learn more

10-Day Weather Forecast

Advertisements
Track Severe Weather on mobile